Time;durP1;ratioP1;P1;durP2;ratioP2;P2;SDS_P1;SDS_P2;PMS_P1;PMS_P2;Temp;Humidity;BMP_temperature;BMP_pressure;BME280_temperature;BME280_humidity;BME280_pressure;Samples;Min_cycle;Max_cycle;Signal;HPM_P1;HPM_P2
2023/07/29 00:00:48;;;;;;;1.40;1.30;;;;;;;17.09;97.00;100647.66;5055163;28;20058;-85
2023/07/29 00:03:16;;;;;;;1.10;1.10;;;;;;;17.09;97.23;100645.03;5055878;28;20025;-84
2023/07/29 00:05:42;;;;;;;1.40;1.30;;;;;;;17.09;97.45;100637.16;5056287;28;20033;-83
2023/07/29 00:08:07;;;;;;;1.43;1.33;;;;;;;17.06;98.08;100626.81;5054908;28;20534;-83
2023/07/29 00:10:35;;;;;;;1.33;1.23;;;;;;;17.11;98.00;100633.53;5055826;28;20029;-84
2023/07/29 00:13:00;;;;;;;1.50;1.40;;;;;;;17.14;97.85;100633.41;5056272;28;20032;-84
2023/07/29 00:15:26;;;;;;;1.40;1.30;;;;;;;17.08;97.82;100615.34;5054906;28;20025;-84
2023/07/29 00:17:51;;;;;;;1.60;1.50;;;;;;;17.18;97.82;100633.25;5055094;28;20472;-84
2023/07/29 00:20:16;;;;;;;1.37;1.30;;;;;;;17.18;97.79;100631.47;5054933;28;20484;-84
2023/07/29 00:22:42;;;;;;;1.50;1.40;;;;;;;17.18;97.87;100628.03;5055554;28;20032;-84
2023/07/29 00:25:07;;;;;;;1.30;1.20;;;;;;;17.19;97.97;100640.22;5055569;28;20055;-84
2023/07/29 00:27:33;;;;;;;1.30;1.27;;;;;;;17.13;97.71;100634.31;5054764;28;20135;-83
2023/07/29 00:29:58;;;;;;;1.20;1.20;;;;;;;17.10;97.80;100631.00;5055274;28;20032;-84
2023/07/29 00:32:24;;;;;;;1.53;1.43;;;;;;;17.13;98.19;100641.34;5055366;28;20528;-83
2023/07/29 00:34:49;;;;;;;1.47;1.37;;;;;;;17.13;98.20;100642.19;5054742;28;20096;-84
2023/07/29 00:37:14;;;;;;;1.43;1.33;;;;;;;17.11;98.24;100627.44;5055106;28;20393;-84
2023/07/29 00:39:40;;;;;;;1.20;1.10;;;;;;;17.11;98.31;100633.53;5055465;28;20032;-84
2023/07/29 00:42:06;;;;;;;1.30;1.20;;;;;;;17.08;98.50;100623.22;5054272;28;20057;-84
2023/07/29 00:47:27;;;;;;;1.70;1.60;;;;;;;16.91;99.43;100589.00;5055296;28;20396;-84
2023/07/29 00:49:52;;;;;;;1.60;1.50;;;;;;;16.98;99.18;100608.81;5054646;28;20439;-84
2023/07/29 00:52:18;;;;;;;1.60;1.50;;;;;;;17.01;99.16;100613.91;5054768;28;20025;-84
2023/07/29 00:54:46;;;;;;;1.70;1.33;;;;;;;17.00;99.58;100606.13;5054905;28;20021;-84
2023/07/29 00:57:15;;;;;;;1.30;1.25;;;;;;;16.92;99.41;100601.19;5054558;28;20029;-84
2023/07/29 00:59:40;;;;;;;1.35;1.30;;;;;;;16.91;99.62;100599.50;5055148;28;20029;-84
2023/07/29 01:02:06;;;;;;;1.30;1.20;;;;;;;16.91;99.61;100612.59;5054548;28;20023;-83
2023/07/29 01:04:31;;;;;;;1.60;1.50;;;;;;;16.88;100.00;100607.50;5054600;28;20025;-84
2023/07/29 01:07:12;;;;;;;1.20;1.20;;;;;;;16.83;100.00;100611.19;5055001;28;20525;-84
2023/07/29 01:09:57;;;;;;;1.40;1.30;;;;;;;16.80;100.00;100611.31;5053170;28;20032;-84
2023/07/29 01:12:42;;;;;;;1.42;1.33;;;;;;;16.81;100.00;100602.53;5054653;28;20025;-84
2023/07/29 01:15:32;;;;;;;1.90;1.60;;;;;;;16.81;100.00;100610.41;5054489;28;20480;-84
2023/07/29 01:18:04;;;;;;;1.48;1.38;;;;;;;16.82;100.00;100609.47;5054217;28;20041;-84
2023/07/29 01:20:33;;;;;;;1.70;1.60;;;;;;;16.80;100.00;100603.44;5054272;28;20029;-84
2023/07/29 01:22:58;;;;;;;1.58;1.48;;;;;;;16.84;100.00;100606.78;5054610;28;20063;-84
2023/07/29 01:25:24;;;;;;;1.37;1.27;;;;;;;16.79;99.85;100603.53;5053483;28;20020;-84
2023/07/29 01:27:51;;;;;;;1.40;1.30;;;;;;;16.83;100.00;100610.34;5054527;28;20025;-84
2023/07/29 01:30:17;;;;;;;1.50;1.40;;;;;;;16.81;100.00;100610.41;5053896;28;20032;-84
2023/07/29 01:32:58;;;;;;;1.60;1.50;;;;;;;16.78;100.00;100613.16;5053899;28;20025;-84
2023/07/29 01:35:31;;;;;;;1.60;1.50;;;;;;;16.77;100.00;100618.47;5054585;28;20049;-83
2023/07/29 01:38:05;;;;;;;1.33;1.23;;;;;;;16.72;100.00;100609.97;5053620;28;20835;-84
2023/07/29 01:40:32;;;;;;;1.50;1.40;;;;;;;16.70;100.00;100620.50;5054374;28;20050;-84
2023/07/29 01:42:57;;;;;;;1.23;1.23;;;;;;;16.66;100.00;100614.56;5054643;28;20128;-84
2023/07/29 01:45:25;;;;;;;1.60;1.50;;;;;;;16.59;100.00;100609.66;5053686;28;20441;-84
2023/07/29 01:47:51;;;;;;;2.30;2.10;;;;;;;16.64;100.00;100623.41;5054372;28;20025;-85
2023/07/29 01:50:16;;;;;;;1.63;1.53;;;;;;;16.52;100.00;100603.84;5053905;28;20021;-84
2023/07/29 01:52:42;;;;;;;1.90;1.53;;;;;;;16.58;100.00;100624.53;5054069;28;20033;-84
2023/07/29 01:55:07;;;;;;;2.40;2.20;;;;;;;16.56;100.00;100625.50;5053608;28;20525;-83
2023/07/29 01:57:32;;;;;;;2.20;2.00;;;;;;;16.52;100.00;100620.41;5053989;28;20040;-83
2023/07/29 02:00:03;;;;;;;1.57;1.47;;;;;;;16.57;100.00;100632.44;5053074;28;20400;-84
2023/07/29 02:02:29;;;;;;;1.58;1.48;;;;;;;16.57;100.00;100630.69;5053972;28;20385;-84
2023/07/29 02:04:55;;;;;;;1.60;1.50;;;;;;;16.46;100.00;100612.81;5053952;28;20020;-83
2023/07/29 02:07:22;;;;;;;1.35;1.30;;;;;;;16.58;100.00;100626.28;5053062;28;20029;-83
2023/07/29 02:09:47;;;;;;;;;;;;;;;16.57;100.00;100621.97;5053839;28;20484;-83
2023/07/29 02:12:12;;;;;;;1.93;1.50;;;;;;;16.51;100.00;100613.47;5054008;28;19921;-84
2023/07/29 02:14:38;;;;;;;1.40;1.30;;;;;;;16.57;100.00;100617.59;5052761;28;20101;-83
2023/07/29 02:17:03;;;;;;;0.90;0.90;;;;;;;16.58;100.00;100621.06;5053393;28;20040;-84
2023/07/29 02:19:29;;;;;;;1.23;1.13;;;;;;;16.62;100.00;100617.38;5054118;28;20418;-84
2023/07/29 02:21:55;;;;;;;1.03;1.03;;;;;;;16.57;100.00;100601.88;5054000;28;20029;-83
2023/07/29 02:24:20;;;;;;;;;;;;;;;16.61;100.00;100613.91;5054086;28;20123;-83
2023/07/29 02:26:46;;;;;;;0.90;0.90;;;;;;;16.58;100.00;100608.81;5054526;28;20011;-83
2023/07/29 02:29:11;;;;;;;1.77;1.67;;;;;;;16.58;100.00;100607.94;5052587;28;20044;-83
2023/07/29 02:31:37;;;;;;;1.70;1.60;;;;;;;16.55;100.00;100603.72;5053352;28;20055;-84
2023/07/29 02:34:03;;;;;;;1.45;1.35;;;;;;;16.49;100.00;100594.34;5052634;28;20507;-84
2023/07/29 02:36:28;;;;;;;1.20;1.20;;;;;;;16.56;100.00;100610.66;5053384;28;20028;-84
2023/07/29 02:38:53;;;;;;;1.37;1.27;;;;;;;16.54;100.00;100599.38;5052724;28;20037;-84
2023/07/29 02:41:29;;;;;;;1.30;1.20;;;;;;;16.54;100.00;100602.00;5051825;28;20040;-84
2023/07/29 02:43:54;;;;;;;1.48;1.38;;;;;;;16.52;100.00;100607.31;5053406;28;20033;-84
2023/07/29 02:46:20;;;;;;;1.40;1.30;;;;;;;16.51;100.00;100602.13;5053085;28;20051;-84
2023/07/29 02:48:46;;;;;;;1.33;1.08;;;;;;;16.49;100.00;100596.97;5052737;28;20089;-84
2023/07/29 02:51:11;;;;;;;0.87;0.87;;;;;;;16.48;100.00;100600.50;5052919;28;20029;-84
2023/07/29 02:53:37;;;;;;;0.83;0.83;;;;;;;16.45;100.00;100603.25;5053183;28;20075;-84
2023/07/29 02:56:03;;;;;;;0.67;0.67;;;;;;;16.43;100.00;100599.00;5052402;28;20025;-84
2023/07/29 02:58:29;;;;;;;0.70;0.70;;;;;;;16.35;100.00;100594.97;5052892;28;20075;-84
2023/07/29 03:01:03;;;;;;;0.80;0.80;;;;;;;16.35;100.00;100602.81;5053319;28;20408;-84
2023/07/29 03:03:29;;;;;;;1.48;1.02;;;;;;;16.31;100.00;100598.63;5052316;28;20056;-84
2023/07/29 03:06:07;;;;;;;0.80;0.80;;;;;;;16.31;100.00;100597.78;5053071;28;20432;-84
2023/07/29 03:08:32;;;;;;;1.17;1.08;;;;;;;16.21;100.00;100587.69;5052959;28;20025;-84
2023/07/29 03:10:58;;;;;;;1.70;1.60;;;;;;;16.20;100.00;100587.75;5052349;28;20090;-84
2023/07/29 03:13:23;;;;;;;1.67;1.57;;;;;;;16.25;100.00;100605.88;5052759;28;20410;-84
2023/07/29 03:15:52;;;;;;;1.63;1.53;;;;;;;16.17;100.00;100596.59;5053147;28;20029;-85
2023/07/29 03:18:17;;;;;;;0.88;0.88;;;;;;;16.20;100.00;100593.88;5051054;28;20056;-84
2023/07/29 03:20:42;;;;;;;1.07;1.03;;;;;;;16.20;100.00;100593.88;5052279;28;20366;-84
2023/07/29 03:23:11;;;;;;;1.20;1.10;;;;;;;16.18;100.00;100595.69;5051908;28;20081;-84
2023/07/29 03:25:36;;;;;;;1.20;1.10;;;;;;;16.15;100.00;100608.06;5052616;28;20045;-84
2023/07/29 03:28:02;;;;;;;1.00;0.90;;;;;;;16.14;100.00;100604.56;5052273;28;20061;-84
2023/07/29 03:30:27;;;;;;;1.03;1.03;;;;;;;16.12;100.00;100616.03;5052031;28;20021;-84
2023/07/29 03:32:52;;;;;;;1.27;1.17;;;;;;;16.10;100.00;100617.88;5055146;28;20056;-84
2023/07/29 03:35:18;;;;;;;1.10;1.10;;;;;;;16.04;100.00;100608.50;5056738;28;20076;-84
2023/07/29 03:37:43;;;;;;;1.00;1.00;;;;;;;16.05;100.00;100610.22;5056100;28;20025;-84
2023/07/29 03:40:09;;;;;;;1.73;1.43;;;;;;;15.99;100.00;100606.09;5056335;28;20112;-84
2023/07/29 03:42:35;;;;;;;1.57;1.47;;;;;;;15.97;100.00;100617.53;5056639;28;20148;-84
2023/07/29 03:45:00;;;;;;;1.35;1.25;;;;;;;15.95;100.00;100614.13;5055767;28;20033;-84
2023/07/29 03:47:26;;;;;;;2.27;1.80;;;;;;;15.92;100.00;100607.25;5055930;28;20359;-84
2023/07/29 03:49:51;;;;;;;1.47;1.37;;;;;;;15.93;100.00;100602.88;5056260;28;20033;-84
2023/07/29 03:52:20;;;;;;;1.57;1.37;;;;;;;15.92;100.00;100609.00;5055393;28;20025;-84
2023/07/29 03:54:45;;;;;;;1.40;1.30;;;;;;;15.88;100.00;100609.13;5056328;28;20385;-84
2023/07/29 03:57:11;;;;;;;0.97;0.97;;;;;;;15.88;100.00;100611.75;5055974;28;20051;-84
2023/07/29 03:59:36;;;;;;;1.60;1.50;;;;;;;15.82;100.00;100585.81;5054990;28;20384;-84
2023/07/29 04:02:01;;;;;;;1.47;1.37;;;;;;;15.78;100.00;100573.75;5056070;28;20119;-84
2023/07/29 04:04:26;;;;;;;1.37;1.27;;;;;;;15.81;100.00;100571.03;5055657;28;20056;-84
2023/07/29 04:06:52;;;;;;;1.33;1.23;;;;;;;15.79;100.00;100567.63;5055090;28;20056;-84
2023/07/29 04:09:17;;;;;;;1.37;1.27;;;;;;;15.79;100.00;100562.38;5055948;28;20037;-84
2023/07/29 04:11:43;;;;;;;1.50;1.40;;;;;;;15.77;100.00;100568.59;5056141;28;20086;-84
2023/07/29 04:14:08;;;;;;;1.83;1.60;;;;;;;15.77;100.00;100571.22;5054858;28;20159;-84
2023/07/29 04:16:33;;;;;;;1.80;1.70;;;;;;;15.72;100.00;100556.56;5055978;28;20021;-84
2023/07/29 04:18:59;;;;;;;1.70;1.60;;;;;;;15.73;100.00;100555.63;5055769;28;20052;-84
2023/07/29 04:21:24;;;;;;;1.10;1.10;;;;;;;15.73;100.00;100575.72;5055045;28;20029;-84
2023/07/29 04:23:49;;;;;;;1.20;1.10;;;;;;;15.78;100.00;100592.06;5055214;28;20034;-84
2023/07/29 04:26:15;;;;;;;1.40;1.30;;;;;;;15.79;100.00;100601.63;5055755;28;20029;-84
2023/07/29 04:28:40;;;;;;;0.90;0.90;;;;;;;15.79;100.00;100614.72;5055244;28;20065;-84
2023/07/29 04:31:05;;;;;;;1.10;1.10;;;;;;;15.78;100.00;100620.84;5055282;28;20047;-84
2023/07/29 04:33:31;;;;;;;1.07;1.03;;;;;;;15.71;100.00;100603.72;5054666;28;20025;-84
2023/07/29 04:35:57;;;;;;;1.10;1.00;;;;;;;15.77;100.00;100618.31;5056095;28;20013;-84
2023/07/29 04:38:24;;;;;;;1.30;1.20;;;;;;;15.79;100.00;100621.72;5055287;28;20717;-84
2023/07/29 04:40:50;;;;;;;1.10;0.98;;;;;;;15.81;100.00;100617.28;5054899;28;20040;-84
2023/07/29 04:43:15;;;;;;;0.83;0.83;;;;;;;15.77;100.00;100615.69;5054409;28;20013;-84
2023/07/29 04:45:43;;;;;;;1.10;1.10;;;;;;;15.83;100.00;100613.69;5055356;28;20366;-84
2023/07/29 04:48:09;;;;;;;0.80;0.80;;;;;;;15.83;100.00;100632.00;5054352;28;20047;-84
2023/07/29 04:50:34;;;;;;;1.10;1.00;;;;;;;15.84;100.00;100625.88;5055419;28;20112;-84
2023/07/29 04:52:59;;;;;;;1.60;1.40;;;;;;;15.83;100.00;100624.16;5055198;28;20381;-84
2023/07/29 04:55:25;;;;;;;1.07;1.07;;;;;;;15.84;100.00;100623.28;5053992;28;20465;-84
2023/07/29 04:57:50;;;;;;;1.80;1.70;;;;;;;15.85;100.00;100619.75;5055538;28;20055;-84
2023/07/29 05:00:16;;;;;;;1.70;1.60;;;;;;;15.86;100.00;100626.69;5054931;28;20112;-84
2023/07/29 05:02:41;;;;;;;1.73;1.50;;;;;;;15.84;100.00;100612.81;5054550;28;20033;-84
2023/07/29 05:05:07;;;;;;;1.57;1.47;;;;;;;15.84;100.00;100620.66;5055214;28;20485;-84
2023/07/29 05:07:33;;;;;;;2.08;1.70;;;;;;;15.87;100.00;100631.00;5055161;28;20038;-84
2023/07/29 05:09:58;;;;;;;1.80;1.70;;;;;;;15.90;100.00;100636.09;5054162;28;20373;-84
2023/07/29 05:12:24;;;;;;;1.20;1.10;;;;;;;15.84;100.00;100628.50;5053729;28;20048;-84
2023/07/29 05:15:01;;;;;;;1.93;1.70;;;;;;;15.90;100.00;100643.09;5054928;28;20040;-84
2023/07/29 05:17:26;;;;;;;2.08;1.80;;;;;;;15.93;100.00;100650.81;5049517;28;20406;-83
2023/07/29 05:19:51;;;;;;;1.57;1.47;;;;;;;15.95;100.00;100656.00;5054707;28;20041;-83
2023/07/29 05:22:17;;;;;;;1.90;1.43;;;;;;;15.98;100.00;100658.50;5054591;28;20377;-84
2023/07/29 05:24:42;;;;;;;1.50;1.40;;;;;;;15.96;100.00;100652.47;5054145;28;20485;-84
2023/07/29 05:27:08;;;;;;;2.10;1.90;;;;;;;16.00;100.00;100651.41;5054382;28;20382;-84
2023/07/29 05:29:34;;;;;;;1.85;1.75;;;;;;;16.02;100.00;100637.38;5055206;28;20029;-84
2023/07/29 05:32:02;;;;;;;1.67;1.57;;;;;;;16.06;100.00;100643.31;5053784;28;20385;-84
2023/07/29 05:34:27;;;;;;;1.33;1.23;;;;;;;16.10;100.00;100638.81;5054966;28;20016;-84
2023/07/29 05:36:52;;;;;;;1.60;1.50;;;;;;;16.13;100.00;100636.06;5053626;28;20112;-84
2023/07/29 05:39:18;;;;;;;1.77;1.67;;;;;;;16.18;100.00;100644.56;5054400;28;20048;-84
2023/07/29 05:41:43;;;;;;;1.60;1.50;;;;;;;16.21;100.00;100647.06;5054350;28;20082;-84
2023/07/29 05:44:11;;;;;;;1.60;1.50;;;;;;;16.26;100.00;100649.47;5053246;28;20029;-84
2023/07/29 05:46:46;;;;;;;1.73;1.60;;;;;;;16.30;100.00;100640.59;5054431;28;20032;-84
2023/07/29 05:49:11;;;;;;;1.60;1.48;;;;;;;16.25;100.00;100625.09;5054027;28;20051;-83
2023/07/29 05:51:37;;;;;;;1.97;1.80;;;;;;;16.36;100.00;100625.47;5053158;28;20481;-83
2023/07/29 05:54:02;;;;;;;1.70;1.60;;;;;;;16.57;100.00;100648.16;5053852;28;20017;-83
2023/07/29 05:56:28;;;;;;;1.87;1.77;;;;;;;16.68;100.00;100656.41;5053790;28;20021;-83
2023/07/29 05:58:55;;;;;;;1.70;1.60;;;;;;;16.80;100.00;100648.00;5052663;28;20124;-83
2023/07/29 06:01:26;;;;;;;3.67;1.80;;;;;;;16.87;100.00;100643.34;5053500;28;20021;-83
2023/07/29 06:03:51;;;;;;;2.22;2.03;;;;;;;17.00;100.00;100648.06;5053901;28;20052;-83
2023/07/29 06:06:16;;;;;;;2.17;1.70;;;;;;;17.07;100.00;100639.84;5052900;28;20059;-82
2023/07/29 06:08:44;;;;;;;2.57;2.10;;;;;;;17.20;100.00;100644.53;5053521;28;20029;-81
2023/07/29 06:11:10;;;;;;;3.15;2.10;;;;;;;17.27;100.00;100640.69;5053910;28;20055;-85
2023/07/29 06:13:35;;;;;;;2.87;2.20;;;;;;;17.43;99.84;100646.06;5052996;28;20021;-87
2023/07/29 06:16:00;;;;;;;2.57;2.07;;;;;;;17.55;99.56;100648.13;5053439;28;20029;-86
2023/07/29 06:18:26;;;;;;;1.73;1.63;;;;;;;17.65;100.00;100645.91;5053071;28;20049;-86
2023/07/29 06:20:51;;;;;;;1.80;1.63;;;;;;;17.79;98.51;100649.66;5052806;28;20032;-87
2023/07/29 06:23:17;;;;;;;2.03;1.83;;;;;;;17.84;98.62;100645.00;5053403;28;20021;-87
2023/07/29 06:25:42;;;;;;;2.63;2.10;;;;;;;17.89;96.14;100627.28;5053253;28;20033;-86
2023/07/29 06:28:09;;;;;;;2.20;2.00;;;;;;;17.93;97.57;100628.81;5052462;28;20059;-85
2023/07/29 06:30:34;;;;;;;2.90;2.08;;;;;;;18.06;97.63;100640.44;5053833;28;20135;-84
2023/07/29 06:33:03;;;;;;;1.80;1.63;;;;;;;18.13;96.97;100640.09;5053553;28;20148;-83
2023/07/29 06:35:47;;;;;;;2.00;1.80;;;;;;;18.16;96.57;100645.22;5053275;28;20017;-83
2023/07/29 06:38:12;;;;;;;1.70;1.60;;;;;;;18.45;98.00;100641.09;5052728;28;20079;-83
2023/07/29 06:40:50;;;;;;;1.67;1.57;;;;;;;19.41;95.49;100643.06;5052180;28;20017;-83
2023/07/29 06:43:15;;;;;;;1.10;1.10;;;;;;;19.69;94.58;100644.16;5052558;28;20444;-83
2023/07/29 06:45:41;;;;;;;1.53;1.43;;;;;;;20.70;95.06;100649.69;5053401;28;20025;-84
2023/07/29 06:48:06;;;;;;;1.27;1.17;;;;;;;22.15;89.92;100644.09;5051847;28;20041;-83
2023/07/29 06:50:32;;;;;;;1.60;1.50;;;;;;;23.31;86.25;100640.53;5053707;28;20453;-89
2023/07/29 06:52:57;;;;;;;1.50;1.40;;;;;;;23.67;83.04;100639.66;5054178;28;20017;-89
2023/07/29 06:55:22;;;;;;;1.33;1.17;;;;;;;23.98;82.87;100652.44;5054464;28;20059;-89
2023/07/29 06:57:48;;;;;;;1.40;1.30;;;;;;;24.62;78.13;100656.44;5054173;28;20040;-86
2023/07/29 07:00:13;;;;;;;1.37;1.27;;;;;;;25.03;76.30;100668.28;5053227;28;20017;-86
2023/07/29 07:02:39;;;;;;;1.70;1.60;;;;;;;25.04;74.46;100674.44;5052477;28;20075;-87
2023/07/29 07:05:04;;;;;;;1.47;1.37;;;;;;;24.74;73.72;100673.22;5054217;28;20024;-84
2023/07/29 07:07:30;;;;;;;1.40;1.30;;;;;;;24.36;71.87;100675.19;5052611;28;20056;-85
2023/07/29 07:09:56;;;;;;;1.10;1.08;;;;;;;24.03;72.70;100682.09;5052035;28;20109;-84
2023/07/29 07:12:24;;;;;;;1.77;1.67;;;;;;;23.56;73.24;100674.03;5052795;28;20089;-83
2023/07/29 07:14:49;;;;;;;2.33;1.63;;;;;;;22.96;69.86;100665.88;5052713;28;20020;-83
2023/07/29 07:17:16;;;;;;;1.43;1.30;;;;;;;22.37;75.33;100670.75;5052203;28;20029;-84
2023/07/29 07:19:41;;;;;;;;;;;;;;;21.85;74.82;100666.28;5052998;28;20488;-84
2023/07/29 07:22:06;;;;;;;;;;;;;;;21.38;79.11;100674.53;5052364;28;20002;-84
2023/07/29 07:24:32;;;;;;;2.00;1.80;;;;;;;20.98;77.77;100674.38;5052034;28;19917;-85
2023/07/29 07:26:57;;;;;;;1.73;1.60;;;;;;;20.67;80.34;100668.34;5053499;28;20033;-84
2023/07/29 07:29:23;;;;;;;1.40;1.30;;;;;;;20.48;82.77;100673.88;5051735;28;20461;-84
2023/07/29 07:31:52;;;;;;;1.53;1.43;;;;;;;20.34;82.11;100678.16;5052961;28;20033;-85
2023/07/29 07:34:21;;;;;;;1.80;1.70;;;;;;;20.25;83.38;100681.34;5051989;28;20040;-85
2023/07/29 07:36:46;;;;;;;1.55;1.45;;;;;;;20.21;84.47;100685.09;5051605;28;20021;-84
2023/07/29 07:39:12;;;;;;;1.37;1.30;;;;;;;20.22;83.39;100684.16;5052831;28;20028;-84
2023/07/29 07:41:39;;;;;;;3.20;1.80;;;;;;;20.14;83.87;100686.41;5052855;28;20107;-83
2023/07/29 07:44:04;;;;;;;1.60;1.50;;;;;;;20.04;84.52;100689.56;5051612;28;20075;-83
2023/07/29 07:46:29;;;;;;;1.40;1.30;;;;;;;20.08;84.90;100692.03;5052882;28;20048;-83
2023/07/29 07:48:55;;;;;;;2.03;1.73;;;;;;;19.99;84.49;100694.22;5052423;28;20071;-83
2023/07/29 07:51:20;;;;;;;1.80;1.70;;;;;;;19.93;84.96;100691.97;5052069;28;20498;-83
2023/07/29 07:53:45;;;;;;;1.50;1.40;;;;;;;19.96;85.55;100691.81;5052861;28;20021;-81
2023/07/29 07:56:11;;;;;;;1.60;1.50;;;;;;;20.09;85.86;100699.00;5052398;28;20028;-82
2023/07/29 07:58:36;;;;;;;1.80;1.70;;;;;;;20.25;85.89;100698.97;5051908;28;20040;-83
2023/07/29 08:01:07;;;;;;;1.73;1.63;;;;;;;20.36;85.83;100693.91;5052404;28;20028;-82
2023/07/29 08:03:35;;;;;;;2.33;1.85;;;;;;;20.54;83.72;100699.88;5052483;28;20029;-84
2023/07/29 08:06:01;;;;;;;1.70;1.60;;;;;;;20.60;83.79;100696.84;5051433;28;20547;-82
2023/07/29 08:08:29;;;;;;;1.70;1.60;;;;;;;20.62;82.88;100687.06;5051979;28;20056;-86
2023/07/29 08:10:57;;;;;;;1.50;1.40;;;;;;;20.67;82.79;100690.25;5052532;28;20025;-82
2023/07/29 08:13:27;;;;;;;2.15;1.63;;;;;;;20.64;82.00;100685.19;5051645;28;20032;-82
2023/07/29 08:15:53;;;;;;;2.67;1.80;;;;;;;20.62;81.15;100707.31;5050080;28;20431;-82
2023/07/29 08:18:34;;;;;;;1.80;1.70;;;;;;;20.63;82.54;100694.03;5052819;28;20102;-82
2023/07/29 08:21:11;;;;;;;1.70;1.60;;;;;;;20.70;82.77;100688.38;5056129;28;20412;-81
2023/07/29 08:23:37;;;;;;;2.28;1.67;;;;;;;20.74;82.89;100714.50;5055967;28;20021;-82
2023/07/29 08:26:05;;;;;;;1.30;1.20;;;;;;;20.62;83.44;100707.31;5054838;28;20031;-83
2023/07/29 08:28:43;;;;;;;1.20;1.20;;;;;;;20.41;83.05;100697.09;5055608;28;20029;-82
2023/07/29 08:31:08;;;;;;;1.45;1.35;;;;;;;20.33;83.13;100694.91;5054894;28;20033;-82
2023/07/29 08:33:34;;;;;;;1.23;1.13;;;;;;;20.27;84.07;100700.56;5054799;28;20025;-82
2023/07/29 08:36:00;;;;;;;1.13;1.13;;;;;;;20.23;83.23;100698.19;5055082;28;20290;-83
2023/07/29 08:38:25;;;;;;;1.60;1.50;;;;;;;20.12;83.54;100685.63;5055680;28;20025;-81
2023/07/29 08:41:14;;;;;;;1.20;1.10;;;;;;;20.24;84.81;100698.09;5055051;28;20029;-82
2023/07/29 08:43:50;;;;;;;1.20;1.10;;;;;;;20.36;84.75;100696.53;5055758;28;20025;-83
2023/07/29 08:46:16;;;;;;;1.48;1.38;;;;;;;20.41;83.06;100691.81;5054797;28;20021;-81
2023/07/29 08:48:43;;;;;;;1.63;1.52;;;;;;;20.43;83.10;100689.97;5054115;28;20547;-83
2023/07/29 08:51:12;;;;;;;1.90;1.75;;;;;;;20.46;81.44;100681.00;5054602;28;20063;-84
2023/07/29 08:53:38;;;;;;;1.70;1.60;;;;;;;20.63;83.55;100669.44;5055043;28;20021;-82
2023/07/29 08:56:04;;;;;;;;;;;;;;;21.09;82.11;100694.84;5053815;28;20032;-83
2023/07/29 08:58:30;;;;;;;;;;;;;;;21.42;82.29;100693.66;5055657;28;19912;-83
2023/07/29 09:00:55;;;;;;;;;;;;;;;21.60;78.83;100686.41;5054401;28;19919;-82
2023/07/29 09:03:21;;;;;;;1.70;1.60;;;;;;;21.63;76.28;100688.81;5054531;28;19952;-83
2023/07/29 09:06:04;;;;;;;1.58;1.48;;;;;;;21.63;79.49;100686.19;5054754;28;20058;-84
2023/07/29 09:08:29;;;;;;;1.55;1.45;;;;;;;21.64;79.63;100679.97;5054041;28;20051;-81
2023/07/29 09:10:55;;;;;;;1.33;1.27;;;;;;;21.77;79.48;100687.94;5054621;28;20045;-84
2023/07/29 09:13:21;;;;;;;1.10;1.10;;;;;;;21.79;79.85;100683.38;5054286;28;20033;-81
2023/07/29 09:16:02;;;;;;;1.05;1.05;;;;;;;21.87;78.43;100681.13;5054091;28;20071;-82
2023/07/29 09:18:55;;;;;;;1.67;1.10;;;;;;;22.00;79.07;100688.22;5053290;28;20056;-81
2023/07/29 09:21:26;;;;;;;1.27;1.10;;;;;;;22.03;78.26;100675.66;5053816;28;20065;-81
2023/07/29 09:23:52;;;;;;;1.20;1.10;;;;;;;22.13;78.07;100683.81;5053728;28;20060;-83
2023/07/29 09:26:25;;;;;;;1.60;1.50;;;;;;;22.36;73.22;100681.41;5054248;28;20497;-83
2023/07/29 09:28:58;;;;;;;1.60;1.50;;;;;;;22.47;72.63;100672.78;5052120;28;20111;-81
2023/07/29 09:31:27;;;;;;;1.77;1.48;;;;;;;22.46;73.20;100660.53;5053651;28;20079;-84
2023/07/29 09:33:58;;;;;;;1.38;1.27;;;;;;;22.62;75.88;100674.41;5054571;28;20721;-83
2023/07/29 09:36:26;;;;;;;1.35;1.25;;;;;;;22.74;75.38;100677.16;5053079;28;20051;-84
2023/07/29 09:38:55;;;;;;;1.30;1.20;;;;;;;22.95;74.12;100677.44;5054207;28;20033;-82
2023/07/29 09:41:30;;;;;;;1.83;1.50;;;;;;;23.10;69.54;100671.06;5054213;28;20025;-83
2023/07/29 09:43:58;;;;;;;1.48;1.40;;;;;;;23.19;74.24;100655.47;5053785;28;20036;-85
2023/07/29 09:46:25;;;;;;;1.00;1.00;;;;;;;23.31;72.47;100674.94;5053962;28;20025;-83
2023/07/29 09:48:54;;;;;;;1.08;1.08;;;;;;;23.24;74.87;100680.69;5054148;28;20039;-83
2023/07/29 09:51:22;;;;;;;1.27;1.17;;;;;;;23.14;73.83;100684.91;5052892;28;20604;-84
2023/07/29 09:53:59;;;;;;;1.00;1.00;;;;;;;23.02;72.96;100669.91;5053820;28;20039;-82
2023/07/29 09:56:40;;;;;;;1.10;1.08;;;;;;;22.88;70.63;100674.38;5053415;28;20131;-82
2023/07/29 09:59:12;;;;;;;1.20;1.10;;;;;;;22.70;71.28;100679.13;5053084;28;20021;-85
2023/07/29 10:01:50;;;;;;;0.90;0.90;;;;;;;22.64;74.75;100680.41;5053987;28;20025;-84
2023/07/29 10:04:17;;;;;;;1.50;1.40;;;;;;;22.53;72.54;100677.66;5052799;28;20075;-85
2023/07/29 10:06:42;;;;;;;;;;;;;;;22.41;72.49;100687.28;5053377;28;20478;-83
2023/07/29 10:09:10;;;;;;;;;;;;;;;22.28;72.65;100691.66;5053656;28;20035;-84
2023/07/29 10:11:37;;;;;;;1.80;1.55;;;;;;;22.09;73.30;100668.25;5052949;28;19919;-81
2023/07/29 10:14:02;;;;;;;1.20;1.10;;;;;;;22.15;74.78;100683.72;5052949;28;20503;-83
2023/07/29 10:16:29;;;;;;;1.30;1.20;;;;;;;22.13;73.31;100678.53;5054140;28;20099;-83
2023/07/29 10:18:56;;;;;;;1.00;1.00;;;;;;;22.28;76.32;100674.03;5052674;28;20051;-83
2023/07/29 10:21:23;;;;;;;1.27;1.17;;;;;;;22.58;75.19;100672.91;5053263;28;20059;-82
2023/07/29 10:23:53;;;;;;;1.30;1.20;;;;;;;22.94;75.03;100679.25;5053843;28;20104;-83
2023/07/29 10:26:19;;;;;;;1.95;0.95;;;;;;;23.23;74.77;100670.22;5052617;28;20461;-82
2023/07/29 10:28:50;;;;;;;1.00;1.00;;;;;;;23.41;71.65;100671.53;5053345;28;20079;-82
2023/07/29 10:31:17;;;;;;;2.42;1.30;;;;;;;23.42;70.07;100669.72;5053129;28;20021;-82
2023/07/29 10:33:43;;;;;;;1.30;1.20;;;;;;;23.43;70.20;100682.88;5052561;28;20024;-84
2023/07/29 10:36:09;;;;;;;2.08;1.40;;;;;;;23.35;69.86;100672.00;5052943;28;20432;-82
2023/07/29 10:38:35;;;;;;;1.65;1.55;;;;;;;23.36;71.13;100665.72;5053824;28;20083;-84
2023/07/29 10:41:00;;;;;;;1.80;1.70;;;;;;;23.49;67.78;100664.81;5052093;28;20029;-83
2023/07/29 10:43:32;;;;;;;2.40;2.13;;;;;;;23.47;68.48;100659.66;5052217;28;20060;-84
2023/07/29 10:46:14;;;;;;;2.67;1.98;;;;;;;23.47;66.46;100658.81;5052829;28;20035;-83
2023/07/29 10:48:44;;;;;;;2.00;1.83;;;;;;;23.62;69.36;100656.84;5052511;28;20041;-84
2023/07/29 10:51:35;;;;;;;1.60;1.50;;;;;;;23.64;68.88;100658.41;5052263;28;20033;-90
2023/07/29 10:54:02;;;;;;;1.65;1.55;;;;;;;23.71;70.33;100651.69;5052781;28;20384;-84
2023/07/29 10:56:35;;;;;;;1.50;1.40;;;;;;;23.79;69.90;100648.47;5053248;28;20056;-84
2023/07/29 10:59:16;;;;;;;1.40;1.30;;;;;;;23.80;69.07;100649.34;5052697;28;20032;-84
2023/07/29 11:01:43;;;;;;;1.50;1.40;;;;;;;23.61;65.44;100648.03;5052251;28;20043;-84
2023/07/29 11:04:24;;;;;;;1.52;1.42;;;;;;;23.47;70.58;100657.00;5052474;28;20024;-85
2023/07/29 11:07:04;;;;;;;1.50;1.40;;;;;;;23.41;68.96;100657.47;5052381;28;20036;-85
2023/07/29 11:09:48;;;;;;;1.40;1.30;;;;;;;23.32;66.28;100660.75;5051332;28;20028;-86
2023/07/29 11:12:35;;;;;;;1.42;1.33;;;;;;;23.16;70.41;100656.53;5052708;28;20036;-85
2023/07/29 11:15:04;;;;;;;1.55;1.45;;;;;;;23.01;71.28;100657.63;5052688;28;20031;-83
2023/07/29 11:17:34;;;;;;;1.50;1.40;;;;;;;22.87;69.07;100645.38;5052963;28;20025;-82
2023/07/29 11:23:30;;;;;;;1.50;1.40;;;;;;;22.55;71.90;100662.53;5052175;28;20551;-83
2023/07/29 11:26:03;;;;;;;1.88;1.30;;;;;;;22.50;73.05;100659.38;5052561;28;20029;-83
2023/07/29 11:28:29;;;;;;;1.20;1.10;;;;;;;22.52;73.47;100663.59;5052233;28;20392;-83
2023/07/29 11:30:56;;;;;;;1.02;1.02;;;;;;;22.46;73.71;100660.53;5052816;28;20100;-82
2023/07/29 11:33:23;;;;;;;0.90;0.90;;;;;;;22.45;74.23;100657.03;5051925;28;20107;-82